Time;durP1;ratioP1;P1;durP2;ratioP2;P2;SDS_P1;SDS_P2;PMS_P1;PMS_P2;Temp;Humidity;BMP_temperature;BMP_pressure;BME280_temperature;BME280_humidity;BME280_pressure;Samples;Min_cycle;Max_cycle;Signal;HPM_P1;HPM_P2
2022/04/11 00:00:08;;;;;;;6.70;3.53;;;;;;;10.58;71.34;99246.28;30847315;28;20054;-79
2022/04/11 00:15:10;;;;;;;7.43;2.50;;;;;;;10.49;72.08;99229.91;30821646;28;20044;-79
2022/04/11 00:30:13;;;;;;;6.23;3.43;;;;;;;10.33;74.01;99246.34;30831195;28;20105;-80
2022/04/11 00:45:15;;;;;;;5.73;3.33;;;;;;;10.18;76.54;99240.56;30848359;28;20526;-78
2022/04/11 01:00:17;;;;;;;7.03;2.73;;;;;;;10.01;77.34;99257.41;30847967;28;20054;-78
2022/04/11 01:15:19;;;;;;;11.53;4.10;;;;;;;9.89;79.75;99251.56;30823148;28;20050;-79
2022/04/11 01:30:21;;;;;;;8.03;3.50;;;;;;;9.85;82.78;99256.31;30833256;28;20066;-77
2022/04/11 01:45:23;;;;;;;7.27;3.73;;;;;;;9.75;82.72;99246.53;30815233;28;20062;-79
2022/04/11 02:00:26;;;;;;;12.47;4.37;;;;;;;9.61;84.34;99246.22;30848408;28;20168;-78
2022/04/11 02:15:28;;;;;;;7.90;4.23;;;;;;;9.44;86.48;99248.25;30855792;28;20439;-78
2022/04/11 02:30:30;;;;;;;14.27;4.57;;;;;;;9.46;87.76;99254.75;30848785;28;20054;-79
2022/04/11 02:45:32;;;;;;;7.90;4.20;;;;;;;9.50;88.83;99224.84;30839830;28;20954;-78
2022/04/11 03:00:38;;;;;;;11.97;4.53;;;;;;;9.64;89.14;99229.84;30838712;28;20058;-80
2022/04/11 03:15:40;;;;;;;9.13;4.30;;;;;;;9.82;89.46;99229.31;30831023;28;20459;-78
2022/04/11 03:30:42;;;;;;;7.70;4.40;;;;;;;9.90;88.12;99230.63;30835993;28;20066;-79
2022/04/11 03:45:44;;;;;;;14.03;4.90;;;;;;;9.96;88.04;99249.78;30848693;28;20051;-78
2022/04/11 04:00:46;;;;;;;9.47;4.63;;;;;;;10.23;88.17;99279.97;30863126;28;20058;-78
2022/04/11 04:15:48;;;;;;;18.63;5.07;;;;;;;10.52;88.38;99286.00;30823180;28;20055;-79
2022/04/11 04:30:50;;;;;;;14.37;6.23;;;;;;;10.66;89.62;99289.44;30853207;28;20138;-78
2022/04/11 04:45:52;;;;;;;10.70;4.60;;;;;;;11.12;88.60;99288.66;30829442;28;20499;-78
2022/04/11 05:00:54;;;;;;;11.63;5.30;;;;;;;11.93;86.93;99268.63;30837436;28;20135;-78
2022/04/11 05:15:57;;;;;;;10.53;5.00;;;;;;;12.66;84.63;99270.03;30841502;28;20154;-80
2022/04/11 05:31:00;;;;;;;10.77;4.90;;;;;;;13.13;82.42;99256.72;30842663;28;20051;-80
2022/04/11 05:46:07;;;;;;;16.23;5.47;;;;;;;13.61;80.50;99259.69;30831537;28;20087;-78
2022/04/11 06:01:09;;;;;;;12.20;4.93;;;;;;;13.45;82.17;99240.97;30833391;28;20058;-76
2022/04/11 06:16:12;;;;;;;18.57;5.47;;;;;;;13.81;81.09;99265.38;30842574;28;20059;-78
2022/04/11 06:31:14;;;;;;;12.27;5.63;;;;;;;14.29;79.05;99262.75;30865790;28;20765;-79
2022/04/11 06:46:25;;;;;;;11.67;5.33;;;;;;;15.54;73.00;99257.22;30834310;28;20110;-77
2022/04/11 07:01:34;;;;;;;15.40;5.60;;;;;;;15.68;72.62;99267.44;30879930;28;20047;-78
2022/04/11 07:16:42;;;;;;;15.43;5.70;;;;;;;17.22;66.89;99263.03;30853326;28;20102;-83
2022/04/11 07:31:44;;;;;;;13.13;4.75;;;;;;;17.48;65.62;99304.19;30882545;28;20514;-76
2022/04/11 07:46:46;;;;;;;16.95;6.40;;;;;;;17.85;63.56;99291.28;30873798;28;20684;-77
2022/04/11 08:01:48;;;;;;;14.68;6.13;;;;;;;18.67;60.16;99275.81;30846096;28;20097;-78
2022/04/11 08:16:50;;;;;;;9.80;5.13;;;;;;;19.53;55.98;99259.81;30815852;28;20517;-79
2022/04/11 08:31:53;;;;;;;33.63;17.98;;;;;;;20.43;52.35;99243.94;30852005;28;20047;-89
2022/04/11 08:47:02;;;;;;;52.10;20.77;;;;;;;21.02;49.40;99231.66;30830355;28;20050;-85
2022/04/11 09:02:09;;;;;;;44.67;21.02;;;;;;;20.36;50.42;99263.72;30867227;28;20703;-78
2022/04/11 09:17:11;;;;;;;33.33;16.15;;;;;;;20.74;49.15;99246.34;30823460;28;20086;-76
2022/04/11 09:32:13;;;;;;;28.93;12.53;;;;;;;20.79;49.13;99231.00;30825978;28;20126;-79
2022/04/11 09:47:15;;;;;;;25.38;11.82;;;;;;;20.32;49.88;99227.41;30853748;28;20054;-83
2022/04/11 10:02:18;;;;;;;22.08;9.88;;;;;;;21.05;48.28;99236.13;30860269;28;20059;-79
2022/04/11 10:17:20;;;;;;;15.87;8.40;;;;;;;21.46;46.82;99229.88;30902716;28;20051;-76
2022/04/11 10:32:25;;;;;;;23.93;8.77;;;;;;;20.61;48.03;99243.38;30843784;28;20050;-75
2022/04/11 10:47:31;;;;;;;18.92;7.93;;;;;;;20.15;49.98;99234.97;30867236;28;20058;-75
2022/04/11 11:03:01;;;;;;;15.15;7.15;;;;;;;20.09;49.91;99221.22;30849308;28;20502;-75
2022/04/11 11:18:15;;;;;;;13.82;7.60;;;;;;;20.03;50.43;99224.00;30858842;28;20078;-77
2022/04/11 11:33:25;;;;;;;14.50;5.78;;;;;;;20.43;48.17;99222.66;30832140;28;20051;-89
2022/04/11 11:48:32;;;;;;;12.93;5.03;;;;;;;19.64;50.19;99204.75;30880703;28;20134;-77
2022/04/11 12:18:56;;;;;;;6.97;4.32;;;;;;;18.36;52.87;99185.25;30859913;28;20054;-85
2022/04/11 12:34:12;;;;;;;12.80;4.93;;;;;;;17.70;55.37;99169.91;30829217;28;20049;-83
2022/04/11 12:49:18;;;;;;;9.02;4.18;;;;;;;17.12;55.78;99133.53;30832529;28;20078;-86
2022/04/11 13:04:21;;;;;;;8.68;3.58;;;;;;;16.56;56.40;99118.50;30822998;28;20141;-81
2022/04/11 13:19:22;;;;;;;7.72;3.78;;;;;;;15.80;58.27;99118.63;30812552;28;20062;-78
2022/04/11 13:34:25;;;;;;;4.17;2.40;;;;;;;15.11;58.87;99120.06;30813297;28;20057;-81
2022/04/11 13:49:27;;;;;;;5.37;2.50;;;;;;;14.76;58.48;99111.78;30846353;28;20051;-83
2022/04/11 14:04:29;;;;;;;11.80;4.77;;;;;;;14.27;58.49;99087.75;30840267;28;20062;-84
2022/04/11 14:19:31;;;;;;;4.47;2.67;;;;;;;13.58;59.62;99081.41;30832851;28;20082;-85
2022/04/11 14:34:35;;;;;;;8.53;2.93;;;;;;;13.02;61.47;99065.72;30826031;28;20054;-81
2022/04/11 14:49:37;;;;;;;5.20;2.93;;;;;;;12.45;63.08;99045.75;30849406;28;20050;-83
2022/04/11 15:04:48;;;;;;;3.93;2.73;;;;;;;11.99;64.55;99042.31;30880127;28;20067;-80
2022/04/11 15:19:50;;;;;;;9.73;3.80;;;;;;;11.55;71.24;99020.78;30856984;28;20054;-77
2022/04/11 15:34:53;;;;;;;9.10;3.87;;;;;;;11.08;74.16;99048.28;30865874;28;20146;-81
2022/04/11 15:49:55;;;;;;;3.40;2.10;;;;;;;10.81;73.40;99089.63;30843786;28;20050;-81
2022/04/11 16:05:00;;;;;;;4.03;2.57;;;;;;;10.37;77.72;99100.50;30849933;28;20051;-82
2022/04/11 16:20:03;;;;;;;5.80;2.43;;;;;;;9.92;83.15;99052.00;30889658;28;20078;-81
2022/04/11 16:35:06;;;;;;;4.67;2.30;;;;;;;9.80;86.50;99128.69;30837556;28;20057;-84
2022/04/11 16:50:24;;;;;;;6.93;2.83;;;;;;;9.55;88.57;99162.75;30851120;28;20050;-83
2022/04/11 17:05:26;;;;;;;9.23;2.83;;;;;;;9.09;89.30;99174.94;30832847;28;20050;-79
2022/04/11 17:20:30;;;;;;;10.37;3.47;;;;;;;8.93;89.58;99277.88;30837062;28;20460;-79
2022/04/11 17:35:32;;;;;;;4.17;2.23;;;;;;;8.43;94.50;99271.00;30818855;28;20051;-77
2022/04/11 17:50:33;;;;;;;6.77;3.70;;;;;;;8.11;98.88;99330.44;30818503;28;20062;-78
2022/04/11 18:05:36;;;;;;;5.13;2.60;;;;;;;7.84;100.00;99339.47;30820324;28;20489;-76
2022/04/11 18:20:38;;;;;;;7.03;3.50;;;;;;;7.51;100.00;99221.72;30794424;28;20057;-76
2022/04/11 18:35:40;;;;;;;10.67;4.23;;;;;;;7.21;100.00;99076.22;30848934;28;20061;-73
2022/04/11 18:50:42;;;;;;;7.53;2.77;;;;;;;7.11;100.00;99108.41;30857217;28;20078;-74
2022/04/11 19:05:46;;;;;;;4.50;3.40;;;;;;;6.94;100.00;99098.75;30849895;28;20070;-73
2022/04/11 19:20:49;;;;;;;5.40;3.27;;;;;;;7.01;100.00;99155.28;30845431;28;20083;-75
2022/04/11 19:35:58;;;;;;;6.53;3.10;;;;;;;6.96;100.00;99171.94;30825645;28;20439;-74
2022/04/11 19:51:00;;;;;;;6.43;3.13;;;;;;;6.79;100.00;99171.13;30832144;28;20051;-75
2022/04/11 20:06:02;;;;;;;5.97;3.27;;;;;;;6.55;100.00;99150.00;30832075;28;20058;-73
2022/04/11 20:21:04;;;;;;;5.13;3.17;;;;;;;6.43;100.00;99133.25;30799751;28;20054;-75
2022/04/11 20:36:07;;;;;;;7.27;3.57;;;;;;;6.26;100.00;99058.13;30818562;28;20047;-72
2022/04/11 20:51:09;;;;;;;9.97;4.83;;;;;;;6.24;100.00;99055.06;30827269;28;20045;-74
2022/04/11 21:06:13;;;;;;;13.43;7.47;;;;;;;6.20;100.00;99022.81;30854696;28;20058;-74
2022/04/11 21:21:15;;;;;;;8.07;4.50;;;;;;;6.33;100.00;99053.38;30829093;28;20071;-74
2022/04/11 21:36:17;;;;;;;6.20;3.60;;;;;;;6.47;100.00;99012.63;30844921;28;20043;-74
2022/04/11 21:51:19;;;;;;;6.43;3.43;;;;;;;6.45;100.00;98968.41;30834470;28;20051;-75
2022/04/11 22:06:21;;;;;;;3.70;3.00;;;;;;;6.41;100.00;98957.69;30840339;28;20051;-75
2022/04/11 22:21:23;;;;;;;7.63;4.67;;;;;;;6.22;100.00;98920.75;30834072;28;20134;-75
2022/04/11 22:36:28;;;;;;;4.50;3.30;;;;;;;5.99;100.00;98920.84;30845735;28;20122;-76
2022/04/11 22:51:30;;;;;;;4.07;2.80;;;;;;;6.05;100.00;98948.81;30855828;28;20377;-77
2022/04/11 23:06:32;;;;;;;2.73;2.17;;;;;;;5.92;100.00;98934.44;30820923;28;20055;-75
2022/04/11 23:21:34;;;;;;;12.33;5.70;;;;;;;5.97;100.00;98963.59;30841872;28;20047;-76
2022/04/11 23:36:36;;;;;;;5.80;2.70;;;;;;;5.89;100.00;98943.38;30851619;28;20065;-75
2022/04/11 23:51:37;;;;;;;3.33;2.60;;;;;;;5.90;100.00;98928.72;30830826;28;20714;-75
